Time;durP1;ratioP1;P1;durP2;ratioP2;P2;SDS_P1;SDS_P2;PMS_P1;PMS_P2;Temp;Humidity;BMP_temperature;BMP_pressure;BME280_temperature;BME280_humidity;BME280_pressure;Samples;Min_cycle;Max_cycle;Signal;HPM_P1;HPM_P2
2021/07/12 00:00:59;;;;;;;10.95;8.95;;;;;;;22.50;67.07;101243.03;4943748;28;104808;-94
2021/07/12 00:15:54;;;;;;;12.05;9.25;;;;;;;22.89;66.30;101295.09;4859871;29;103939;-94
2021/07/12 00:23:15;;;;;;;;;;;;;;;22.83;66.49;101302.78;4826916;29;106606;-94
2021/07/12 00:35:23;;;;;;;11.90;9.25;;;;;;;22.49;66.34;101241.53;4785637;29;104091;-94
2021/07/12 00:39:34;;;;;;;15.73;10.63;;;;;;;22.83;66.57;101286.00;4711642;29;104042;-94
2021/07/12 01:24:31;;;;;;;19.08;12.10;;;;;;;22.71;67.21;101276.91;4860865;29;104078;-95
2021/07/12 01:37:21;;;;;;;19.23;13.55;;;;;;;22.38;66.96;101224.06;4852929;29;103985;-94
2021/07/12 01:41:19;;;;;;;18.48;13.85;;;;;;;22.70;67.33;101267.00;4856239;29;106972;-95
2021/07/12 01:57:20;;;;;;;22.85;15.82;;;;;;;22.67;67.78;101248.47;4832114;29;104017;-94
2021/07/12 02:18:36;;;;;;;20.75;15.27;;;;;;;22.61;67.77;101237.34;4862911;28;103711;-94
2021/07/12 02:34:58;;;;;;;25.90;17.05;;;;;;;22.58;68.90;101229.25;4872795;28;103879;-94
2021/07/12 02:42:30;;;;;;;22.15;16.48;;;;;;;22.38;68.61;101202.47;4853599;28;103939;-95
2021/07/12 02:46:24;;;;;;;24.33;16.77;;;;;;;22.59;68.77;101225.16;4853331;29;104080;-94
2021/07/12 02:48:58;;;;;;;22.33;15.68;;;;;;;22.23;68.44;101168.53;4842223;29;106915;-94
2021/07/12 03:04:30;;;;;;;23.33;17.67;;;;;;;22.22;68.59;101167.78;4850801;28;103903;-94
2021/07/12 03:20:37;;;;;;;25.38;18.08;;;;;;;22.40;68.99;101193.56;4855533;29;104689;-94
2021/07/12 03:32:52;;;;;;;22.90;16.27;;;;;;;22.47;68.99;101195.78;4836262;29;104034;-95
2021/07/12 03:52:43;;;;;;;23.95;15.02;;;;;;;22.33;69.54;101178.88;4869362;28;103972;-94
2021/07/12 03:55:26;;;;;;;26.00;16.35;;;;;;;22.03;69.59;101133.38;4853603;28;107555;-94
2021/07/12 03:57:52;;;;;;;22.17;15.43;;;;;;;22.11;69.37;101130.81;4825610;28;106298;-93
2021/07/12 05:48:01;;;;;;;13.82;10.82;;;;;;;23.19;68.71;101099.97;4857295;29;104805;-93
2021/07/12 05:50:29;;;;;;;15.82;11.25;;;;;;;23.20;68.63;101097.91;4855436;29;108364;-93
2021/07/12 05:52:55;;;;;;;20.23;12.55;;;;;;;23.21;68.53;101094.59;4845494;29;106070;-92
2021/07/12 05:55:22;;;;;;;14.23;11.70;;;;;;;23.24;68.81;101087.94;4825894;29;107506;-93
2021/07/12 05:57:47;;;;;;;16.42;11.55;;;;;;;23.31;68.67;101100.56;4826084;29;108180;-93
2021/07/12 06:00:14;;;;;;;13.68;10.45;;;;;;;23.45;68.25;101112.59;4826405;29;107384;-93
2021/07/12 06:02:42;;;;;;;17.60;11.20;;;;;;;23.45;68.73;101104.19;4811097;29;107790;-94
2021/07/12 06:05:09;;;;;;;16.05;11.10;;;;;;;23.45;68.83;101102.16;4823095;29;108059;-92
2021/07/12 06:07:35;;;;;;;15.63;11.00;;;;;;;23.49;68.71;101093.44;4808731;29;106580;-92
2021/07/12 06:10:05;;;;;;;13.85;10.75;;;;;;;23.54;67.75;101087.00;4811377;29;105319;-92
2021/07/12 06:12:31;;;;;;;14.77;10.18;;;;;;;23.77;67.76;101121.81;4822126;29;106818;-93
2021/07/12 06:14:58;;;;;;;13.75;10.07;;;;;;;23.59;68.22;101097.38;4806252;29;107543;-94
2021/07/12 06:17:24;;;;;;;13.98;9.98;;;;;;;23.93;67.99;101142.47;4798648;29;106234;-92
2021/07/12 06:19:54;;;;;;;14.45;9.75;;;;;;;23.77;67.46;101119.00;4785958;29;108748;-93
2021/07/12 06:22:21;;;;;;;14.73;10.55;;;;;;;23.61;67.45;101089.22;4811948;29;107962;-93
2021/07/12 06:24:46;;;;;;;12.85;10.48;;;;;;;23.64;68.08;101095.78;4808945;29;107991;-93
2021/07/12 06:27:12;;;;;;;17.48;9.95;;;;;;;23.63;67.39;101089.44;4805901;29;106678;-93
2021/07/12 06:29:38;;;;;;;15.50;10.00;;;;;;;23.78;67.73;101102.97;4821608;29;107990;-93
2021/07/12 06:32:04;;;;;;;11.85;9.73;;;;;;;23.77;68.06;101095.84;4806385;29;106929;-93
2021/07/12 06:34:36;;;;;;;13.70;9.82;;;;;;;23.79;67.96;101090.47;4806291;29;108764;-93
2021/07/12 06:37:04;;;;;;;11.90;9.23;;;;;;;23.81;66.79;101094.25;4823282;28;106710;-93
2021/07/12 06:39:30;;;;;;;12.80;9.57;;;;;;;24.13;67.45;101141.88;4822648;29;107756;-94
2021/07/12 06:41:56;;;;;;;12.48;9.10;;;;;;;23.80;66.79;101089.94;4824209;29;106930;-93
2021/07/12 06:44:22;;;;;;;11.98;9.20;;;;;;;24.17;67.50;101133.16;4804589;29;107831;-92
2021/07/12 06:46:49;;;;;;;13.00;9.45;;;;;;;23.95;67.07;101106.25;4808172;29;108134;-93
2021/07/12 06:49:16;;;;;;;15.73;9.75;;;;;;;23.93;66.82;101091.28;4822752;29;107449;-93
2021/07/12 06:51:42;;;;;;;15.00;9.82;;;;;;;23.95;66.94;101092.25;4824956;29;106309;-93
2021/07/12 06:54:09;;;;;;;13.77;9.68;;;;;;;23.98;66.91;101093.97;4818419;29;107461;-92
2021/07/12 06:56:37;;;;;;;10.05;8.55;;;;;;;24.17;66.96;101110.75;4818064;29;107251;-93
2021/07/12 06:59:03;;;;;;;12.23;9.20;;;;;;;24.20;66.86;101120.88;4829064;28;108149;-92
2021/07/12 07:01:29;;;;;;;12.07;8.32;;;;;;;24.29;66.34;101128.13;4819218;29;107112;-92
2021/07/12 07:03:59;;;;;;;11.05;9.32;;;;;;;24.23;66.74;101114.19;4818875;29;107636;-92
2021/07/12 07:06:32;;;;;;;11.63;9.43;;;;;;;24.14;66.78;101100.59;4834517;28;107005;-93
2021/07/12 07:21:16;;;;;;;13.02;9.13;;;;;;;24.25;65.84;101074.41;5248314;23;106446;-93
2021/07/12 07:27:43;;;;;;;11.57;8.07;;;;;;;24.27;65.80;101064.19;5692502;23;107062;-93
2021/07/12 07:39:31;;;;;;;13.40;8.85;;;;;;;24.67;65.18;101112.66;4761862;29;103966;-94
2021/07/12 08:09:03;;;;;;;9.65;6.88;;;;;;;25.42;62.07;101043.25;4903120;28;107052;-94
2021/07/12 08:13:27;;;;;;;10.68;7.20;;;;;;;25.79;62.25;101061.78;5058859;27;1337301;-94
2021/07/12 08:16:10;;;;;;;13.57;6.80;;;;;;;25.98;62.08;101059.53;3537177;27;30559261;-93
2021/07/12 08:18:42;;;;;;;7.13;5.80;;;;;;;26.03;61.91;101046.66;2946549;28;22025022;-93
2021/07/12 08:35:05;;;;;;;11.05;7.32;;;;;;;26.84;61.21;101063.09;5966141;22;4014301;-93
2021/07/12 08:37:33;;;;;;;10.40;7.50;;;;;;;26.86;60.47;101055.59;6074028;23;121195;-92
2021/07/12 08:40:43;;;;;;;9.88;6.85;;;;;;;26.96;60.45;101053.00;6072808;23;123618;-94
2021/07/12 08:55:22;;;;;;;10.63;6.90;;;;;;;27.01;58.27;101042.94;6094509;23;124673;-94
2021/07/12 08:58:41;;;;;;;9.90;6.43;;;;;;;27.43;58.54;101082.84;6071546;23;121108;-95
2021/07/12 09:01:30;;;;;;;9.30;7.13;;;;;;;27.36;57.79;101056.19;6042485;23;122283;-94
2021/07/12 09:04:03;;;;;;;10.60;7.22;;;;;;;27.38;58.57;101059.19;6070681;23;121289;-94
2021/07/12 09:11:36;;;;;;;;;;;;;;;;;;;;;
2021/07/12 09:14:07;;;;;;;11.13;6.93;;;;;;;27.64;57.77;101051.75;6008531;23;121073;-95
2021/07/12 09:16:51;;;;;;;8.95;7.07;;;;;;;27.76;57.62;101058.53;6028768;23;125441;-94
2021/07/12 09:19:35;;;;;;;8.40;6.95;;;;;;;28.01;57.39;101081.28;6012231;23;124152;-94
2021/07/12 09:22:13;;;;;;;8.07;6.22;;;;;;;28.00;56.32;101072.06;6037229;23;121715;-94
2021/07/12 09:25:17;;;;;;;9.75;7.20;;;;;;;27.68;56.46;101038.81;6038361;23;123635;-95
2021/07/12 09:32:21;;;;;;;8.27;6.80;;;;;;;27.67;57.17;101025.25;5782189;24;121038;-94
2021/07/12 09:34:48;;;;;;;9.88;6.68;;;;;;;27.74;57.67;101035.78;5781846;24;123875;-93
2021/07/12 09:37:18;;;;;;;11.75;7.38;;;;;;;27.91;57.55;101047.22;5774050;24;121241;-94
2021/07/12 09:40:36;;;;;;;7.53;6.75;;;;;;;28.12;55.53;101061.13;5773307;24;123442;-93
2021/07/12 09:43:02;;;;;;;7.50;6.68;;;;;;;27.90;57.24;101036.53;5754829;24;124308;-95
2021/07/12 09:45:38;;;;;;;;;;;;;;;;;;;;;
2021/07/12 09:57:29;;;;;;;9.70;7.50;;;;;;;27.11;57.70;101010.13;5861442;24;121109;-93
2021/07/12 10:00:18;;;;;;;;;;;;;;;;;;;;;
2021/07/12 10:03:19;;;;;;;12.70;7.82;;;;;;;27.24;58.81;101028.94;5872972;23;121363;-95
2021/07/12 10:05:52;;;;;;;11.45;7.35;;;;;;;27.37;58.71;101046.41;5963448;23;124895;-94
2021/07/12 10:08:19;;;;;;;10.52;7.75;;;;;;;27.41;58.31;101029.13;5942461;23;125223;-94
2021/07/12 10:10:45;;;;;;;12.02;7.55;;;;;;;27.40;58.37;101017.13;5942853;23;121102;-94
2021/07/12 10:13:11;;;;;;;8.95;7.00;;;;;;;27.64;57.43;101026.38;5941095;23;123448;-94
2021/07/12 10:15:37;;;;;;;10.70;6.60;;;;;;;27.47;57.51;100991.03;5917179;23;124406;-95
2021/07/12 10:18:05;;;;;;;9.82;7.38;;;;;;;27.51;56.46;101011.13;5964373;23;121678;-95
2021/07/12 10:20:33;;;;;;;8.38;7.00;;;;;;;27.53;56.98;101008.50;5947610;23;123528;-94
2021/07/12 10:23:00;;;;;;;13.02;7.07;;;;;;;27.80;55.48;101048.38;5941079;23;121344;-94
2021/07/12 10:25:28;;;;;;;9.57;7.30;;;;;;;27.62;56.46;101009.25;5931207;23;124572;-94
2021/07/12 10:28:01;;;;;;;9.45;7.15;;;;;;;27.47;56.54;101001.56;5915824;23;124204;-93
2021/07/12 10:30:59;;;;;;;;;;;;;;;27.71;57.34;101042.56;5941014;23;121968;-95
2021/07/12 10:33:45;;;;;;;9.45;7.80;;;;;;;27.50;56.25;101014.53;6017298;23;123493;-94
2021/07/12 10:36:11;;;;;;;9.23;7.28;;;;;;;27.36;55.57;101007.53;6064577;22;124125;-94
2021/07/12 10:38:40;;;;;;;9.77;7.35;;;;;;;27.30;56.36;101007.72;6066032;23;121091;-94
2021/07/12 10:41:25;;;;;;;9.00;7.78;;;;;;;27.33;56.80;101000.22;6090019;23;124493;-95
2021/07/12 10:44:00;;;;;;;10.23;7.80;;;;;;;27.70;56.27;101047.44;6090715;23;125497;-93
2021/07/12 10:46:26;;;;;;;10.23;7.85;;;;;;;27.73;54.96;101049.13;6064311;23;124378;-93
2021/07/12 10:48:54;;;;;;;9.13;8.23;;;;;;;27.44;55.48;100989.31;6089058;23;124365;-95
2021/07/12 10:51:20;;;;;;;10.23;7.65;;;;;;;27.75;54.18;101045.75;6066017;23;121171;-93
2021/07/12 10:54:07;;;;;;;8.75;7.85;;;;;;;27.69;54.42;101042.38;6091098;23;123344;-94
2021/07/12 10:57:01;;;;;;;9.60;7.53;;;;;;;27.63;55.24;101048.16;6091287;23;124659;-94
2021/07/12 10:59:54;;;;;;;8.35;7.25;;;;;;;27.59;54.73;101038.56;6067150;23;121070;-94
2021/07/12 11:02:20;;;;;;;10.60;7.57;;;;;;;27.56;54.79;101036.88;6044060;23;124782;-94
2021/07/12 11:05:06;;;;;;;8.95;8.05;;;;;;;27.27;53.26;101010.91;6089464;23;122910;-93
2021/07/12 11:07:45;;;;;;;9.60;8.63;;;;;;;27.18;53.59;100984.78;6085179;23;121855;-94
2021/07/12 11:10:31;;;;;;;9.55;8.57;;;;;;;27.28;52.87;100989.88;6061825;23;123983;-94
2021/07/12 11:13:02;;;;;;;12.73;9.38;;;;;;;27.23;54.39;100982.38;6080686;23;121231;-94
2021/07/12 11:15:34;;;;;;;9.75;8.85;;;;;;;27.32;54.27;100990.25;6078869;23;124381;-94
2021/07/12 11:18:08;;;;;;;10.23;9.00;;;;;;;27.55;54.46;101010.00;6084401;23;124483;-94
2021/07/12 11:20:46;;;;;;;10.85;9.50;;;;;;;27.76;54.36;101041.63;6062168;23;121132;-94
2021/07/12 11:23:34;;;;;;;11.50;8.48;;;;;;;27.76;54.74;101035.97;6057781;22;123757;-92
2021/07/12 11:26:01;;;;;;;10.35;8.32;;;;;;;27.30;54.20;100973.94;6073926;22;124716;-94
2021/07/12 11:28:43;;;;;;;14.15;8.60;;;;;;;27.42;55.07;100994.78;6079496;22;121070;-94
2021/07/12 11:31:46;;;;;;;10.20;8.57;;;;;;;27.65;55.25;101039.16;6074707;22;124054;-92
2021/07/12 11:34:14;;;;;;;9.82;8.88;;;;;;;27.22;56.21;100984.44;6074784;22;121009;-92
2021/07/12 11:37:06;;;;;;;11.20;9.40;;;;;;;27.36;56.20;100999.09;6075070;22;123488;-92
2021/07/12 11:39:39;;;;;;;12.10;9.48;;;;;;;27.33;56.44;100995.34;6099558;22;124696;-94
2021/07/12 11:46:20;;;;;;;10.00;9.05;;;;;;;27.32;56.56;100976.94;6151411;22;122616;-93
2021/07/12 11:48:46;;;;;;;10.85;9.82;;;;;;;27.41;56.39;100984.81;6075686;22;124061;-93
2021/07/12 11:51:22;;;;;;;11.32;9.93;;;;;;;27.72;56.02;101018.69;6100624;22;121172;-93
2021/07/12 11:53:48;;;;;;;11.25;9.52;;;;;;;27.53;55.93;100993.66;6104755;22;124446;-92
2021/07/12 11:56:21;;;;;;;10.30;9.23;;;;;;;27.71;56.11;101023.59;6076233;22;121020;-93
2021/07/12 11:58:59;;;;;;;10.75;9.65;;;;;;;27.71;55.84;101011.56;6077791;22;122177;-93
2021/07/12 12:01:26;;;;;;;10.85;9.75;;;;;;;27.36;55.62;100951.97;6075759;22;124982;-94
2021/07/12 12:04:05;;;;;;;10.77;9.50;;;;;;;27.69;55.83;100980.38;6076073;22;121216;-94
2021/07/12 12:06:58;;;;;;;10.48;9.48;;;;;;;27.49;55.50;100934.88;6075771;22;124353;-94
2021/07/12 12:10:14;;;;;;;12.90;9.82;;;;;;;27.51;56.41;100935.06;6060824;22;125032;-94
2021/07/12 12:12:42;;;;;;;12.60;10.13;;;;;;;27.86;55.86;100979.78;6065932;22;121085;-95
2021/07/12 12:15:27;;;;;;;12.40;9.80;;;;;;;27.79;55.56;100975.66;6094615;22;120985;-94
2021/07/12 12:18:25;;;;;;;10.50;9.20;;;;;;;27.84;55.63;100985.97;6100634;22;125610;-95
2021/07/12 12:20:57;;;;;;;11.00;9.25;;;;;;;27.80;56.46;100988.44;6096168;22;123340;-93
2021/07/12 12:23:25;;;;;;;9.85;8.85;;;;;;;27.69;56.58;100980.38;6097366;22;125765;-94
2021/07/12 12:25:54;;;;;;;10.27;9.18;;;;;;;27.73;56.37;100989.94;6072017;22;121081;-95
2021/07/12 12:28:48;;;;;;;9.30;8.30;;;;;;;27.32;55.88;100923.41;6071154;22;123630;-93
2021/07/12 12:31:22;;;;;;;9.18;7.57;;;;;;;27.69;55.45;100986.00;6094221;22;125786;-94
2021/07/12 12:34:06;;;;;;;10.73;7.15;;;;;;;27.67;54.65;100986.53;6092519;22;121121;-91
2021/07/12 12:36:42;;;;;;;8.68;7.35;;;;;;;27.29;55.61;100929.44;6091078;22;123443;-94
2021/07/12 12:42:55;;;;;;;7.57;6.43;;;;;;;27.46;53.90;100919.13;6145036;22;121116;-93
2021/07/12 12:45:25;;;;;;;8.25;6.40;;;;;;;27.51;54.01;100932.25;6041812;22;125646;-94
2021/07/12 12:47:55;;;;;;;7.55;6.05;;;;;;;27.81;54.34;100970.97;6066069;22;121117;-93
2021/07/12 12:50:25;;;;;;;7.00;6.30;;;;;;;27.83;54.06;100970.38;6065681;22;123436;-92
2021/07/12 12:53:03;;;;;;;6.88;5.97;;;;;;;27.47;54.32;100917.78;6015366;23;214465;-94
2021/07/12 12:55:30;;;;;;;6.45;5.85;;;;;;;27.60;54.37;100930.19;6058686;23;121212;-95
2021/07/12 12:58:06;;;;;;;7.70;6.28;;;;;;;27.47;54.71;100902.97;6084104;23;123041;-93
2021/07/12 13:00:32;;;;;;;9.77;5.53;;;;;;;27.47;54.40;100895.25;6081849;23;124754;-93
2021/07/12 13:03:14;;;;;;;7.32;6.10;;;;;;;27.57;54.45;100901.06;6081612;23;121027;-94
2021/07/12 13:05:40;;;;;;;7.22;6.25;;;;;;;27.57;53.91;100897.50;6085692;23;123837;-94
2021/07/12 13:08:09;;;;;;;7.07;6.35;;;;;;;27.77;53.93;100924.75;6078506;23;121635;-94
2021/07/12 13:10:37;;;;;;;7.50;6.13;;;;;;;27.53;53.98;100895.81;6058834;23;122973;-94
2021/07/12 13:13:10;;;;;;;10.05;6.30;;;;;;;27.48;54.41;100887.56;6080918;23;122628;-94
2021/07/12 13:15:38;;;;;;;8.25;6.15;;;;;;;27.47;54.74;100895.25;6084185;23;121997;-94
2021/07/12 13:18:08;;;;;;;10.80;6.80;;;;;;;27.42;54.08;100886.97;6083532;23;123226;-94
2021/07/12 13:20:35;;;;;;;7.13;6.43;;;;;;;27.44;55.00;100896.38;6081630;23;124546;-94
2021/07/12 13:23:05;;;;;;;7.75;6.95;;;;;;;27.41;55.08;100894.69;6057741;23;121676;-94
2021/07/12 13:25:37;;;;;;;12.05;6.35;;;;;;;27.38;53.91;100901.44;6066611;23;123776;-95
2021/07/12 13:28:05;;;;;;;7.63;6.30;;;;;;;27.74;54.49;100943.53;6061506;23;121257;-93
2021/07/12 13:30:44;;;;;;;7.00;5.63;;;;;;;27.39;53.67;100902.94;6059944;23;122826;-94
2021/07/12 13:33:12;;;;;;;8.55;6.05;;;;;;;27.44;53.83;100899.19;6058412;23;124960;-94
2021/07/12 13:35:39;;;;;;;10.13;6.32;;;;;;;27.42;54.59;100889.78;6083485;23;121993;-94
2021/07/12 13:38:07;;;;;;;8.90;6.00;;;;;;;27.40;54.44;100881.16;6060726;23;123337;-94
2021/07/12 13:40:33;;;;;;;6.90;6.18;;;;;;;27.45;55.16;100889.44;6081916;23;124426;-94
2021/07/12 13:43:03;;;;;;;7.03;6.32;;;;;;;27.41;55.80;100882.66;6059111;23;121113;-95
2021/07/12 13:45:33;;;;;;;10.07;6.20;;;;;;;27.39;55.56;100880.41;6056742;23;123312;-94
2021/07/12 13:47:59;;;;;;;6.95;6.20;;;;;;;27.64;55.92;100919.28;6091542;23;124524;-94
2021/07/12 13:50:28;;;;;;;9.27;6.47;;;;;;;27.40;55.94;100881.91;6037429;23;123494;-94
2021/07/12 13:53:01;;;;;;;8.25;6.30;;;;;;;27.35;55.79;100871.59;6084440;23;124419;-94
2021/07/12 13:55:28;;;;;;;7.05;6.10;;;;;;;27.41;55.84;100879.84;6050675;23;121107;-94
2021/07/12 13:57:57;;;;;;;8.63;6.28;;;;;;;27.79;55.52;100930.56;6050845;23;124558;-93
2021/07/12 14:00:28;;;;;;;7.47;5.97;;;;;;;27.40;55.85;100865.00;6049642;23;123036;-93
2021/07/12 14:02:54;;;;;;;7.93;5.20;;;;;;;27.44;55.19;100884.34;6048391;23;121882;-93
2021/07/12 14:05:21;;;;;;;6.55;5.70;;;;;;;27.45;55.36;100880.25;6025850;23;122243;-93
2021/07/12 14:07:49;;;;;;;6.03;5.30;;;;;;;27.44;54.64;100876.66;6049215;23;122776;-94
2021/07/12 14:10:17;;;;;;;5.57;5.07;;;;;;;27.40;54.95;100876.28;6087904;23;121251;-94
2021/07/12 14:12:45;;;;;;;7.60;5.20;;;;;;;27.74;55.10;100931.50;6058323;23;124663;-94
2021/07/12 14:15:15;;;;;;;5.38;4.88;;;;;;;27.30;55.12;100866.16;6057450;23;121099;-94
2021/07/12 14:17:41;;;;;;;7.35;5.40;;;;;;;27.27;55.28;100879.31;6085376;23;123255;-94
2021/07/12 14:20:11;;;;;;;5.75;5.15;;;;;;;27.18;54.98;100872.16;6085440;23;124428;-93
2021/07/12 14:22:37;;;;;;;7.22;5.07;;;;;;;27.17;55.78;100875.53;6088319;23;121188;-93
2021/07/12 14:25:04;;;;;;;7.35;4.97;;;;;;;27.14;55.60;100877.41;6060332;23;124053;-92
2021/07/12 14:27:34;;;;;;;6.90;5.07;;;;;;;27.15;56.03;100878.16;6085468;23;125724;-94
2021/07/12 14:29:59;;;;;;;6.22;5.20;;;;;;;27.31;56.11;100902.19;6060583;23;121108;-93
2021/07/12 14:32:25;;;;;;;6.20;5.10;;;;;;;27.29;55.93;100904.09;6064357;23;121966;-94
2021/07/12 14:34:51;;;;;;;6.00;5.05;;;;;;;27.19;55.41;100876.47;6038392;23;121129;-94
2021/07/12 14:37:17;;;;;;;8.18;4.75;;;;;;;27.55;55.80;100928.31;6062148;23;123382;-95
2021/07/12 14:39:44;;;;;;;5.97;5.07;;;;;;;27.21;56.34;100870.31;6062429;23;124364;-93
2021/07/12 14:42:11;;;;;;;4.95;4.45;;;;;;;27.27;56.67;100870.84;6040319;23;121179;-93
2021/07/12 14:44:37;;;;;;;4.88;4.45;;;;;;;27.28;56.44;100872.34;6064224;23;123529;-95
2021/07/12 14:47:07;;;;;;;5.60;4.47;;;;;;;27.29;56.15;100876.66;6064158;23;124457;-93
2021/07/12 14:49:36;;;;;;;5.38;4.50;;;;;;;27.16;56.13;100868.41;6064887;23;121090;-95
2021/07/12 14:52:07;;;;;;;5.78;5.05;;;;;;;27.17;56.33;100875.53;6039569;23;123273;-95
2021/07/12 14:54:33;;;;;;;5.65;5.03;;;;;;;27.07;56.20;100860.53;6093080;23;125774;-93
2021/07/12 14:57:03;;;;;;;6.82;4.60;;;;;;;27.08;56.04;100850.75;6063417;23;123417;-94
2021/07/12 14:59:29;;;;;;;8.35;4.80;;;;;;;27.47;55.86;100917.78;6034558;23;125473;-94
2021/07/12 15:01:55;;;;;;;7.65;4.57;;;;;;;27.11;56.45;100855.25;6084283;23;121106;-93
2021/07/12 15:04:21;;;;;;;4.78;4.28;;;;;;;27.30;56.25;100878.16;6084472;23;123397;-94
2021/07/12 15:06:47;;;;;;;5.00;4.35;;;;;;;27.19;56.27;100842.69;6058377;23;123808;-92
2021/07/12 15:09:14;;;;;;;6.63;4.60;;;;;;;27.15;56.21;100833.13;6082021;23;121133;-94
2021/07/12 15:11:41;;;;;;;7.22;4.53;;;;;;;27.21;56.24;100842.13;6035602;23;123800;-93
2021/07/12 15:14:07;;;;;;;10.00;4.53;;;;;;;27.68;56.31;100894.31;6057777;23;124551;-94
2021/07/12 15:16:33;;;;;;;6.18;4.82;;;;;;;27.75;56.24;100902.75;6062506;23;121081;-93
2021/07/12 15:18:59;;;;;;;4.80;4.40;;;;;;;27.41;56.66;100846.03;6081853;23;124350;-94
2021/07/12 15:21:26;;;;;;;4.78;4.20;;;;;;;27.45;56.10;100850.00;6082530;23;121201;-93
2021/07/12 15:23:52;;;;;;;5.82;4.10;;;;;;;27.46;55.62;100847.94;6058756;23;123909;-94
2021/07/12 15:26:19;;;;;;;4.55;4.10;;;;;;;27.42;55.54;100839.84;6079545;23;125720;-93
2021/07/12 15:28:47;;;;;;;9.68;3.92;;;;;;;27.47;56.03;100853.00;6084342;23;121181;-93
2021/07/12 15:31:13;;;;;;;6.07;3.75;;;;;;;27.51;55.76;100867.47;6083097;23;123660;-94
2021/07/12 15:33:39;;;;;;;7.53;4.30;;;;;;;27.35;55.86;100834.97;6055857;23;124403;-96
2021/07/12 15:36:04;;;;;;;11.13;4.13;;;;;;;27.33;55.63;100831.97;6063152;23;121035;-94
2021/07/12 15:38:32;;;;;;;4.85;3.85;;;;;;;27.31;55.76;100831.78;6068358;23;124349;-94
2021/07/12 15:40:57;;;;;;;5.03;4.10;;;;;;;27.27;55.90;100822.97;6094331;22;121108;-95
2021/07/12 15:43:23;;;;;;;7.15;3.55;;;;;;;27.21;54.76;100820.38;6070073;22;123415;-93
2021/07/12 15:45:51;;;;;;;5.95;4.00;;;;;;;27.17;55.91;100822.03;6093402;22;124494;-96
2021/07/12 15:48:19;;;;;;;5.20;3.90;;;;;;;27.21;55.65;100830.88;6094714;22;121211;-94
2021/07/12 15:50:47;;;;;;;4.78;3.70;;;;;;;27.11;55.54;100815.84;6044170;23;123373;-94
2021/07/12 15:53:12;;;;;;;4.60;4.00;;;;;;;27.07;55.47;100812.66;6092241;23;124266;-95
2021/07/12 15:55:38;;;;;;;4.18;3.78;;;;;;;27.09;56.03;100824.13;6095568;22;121022;-92
2021/07/12 15:58:05;;;;;;;6.15;4.10;;;;;;;26.99;56.34;100809.09;6100204;22;123441;-93
2021/07/12 16:00:33;;;;;;;5.70;4.30;;;;;;;27.19;55.60;100841.94;6090582;23;121271;-95
2021/07/12 16:03:01;;;;;;;6.78;3.70;;;;;;;26.92;55.92;100799.31;6068285;23;124004;-93
2021/07/12 16:05:27;;;;;;;5.25;4.18;;;;;;;26.86;55.76;100813.56;6093184;23;121988;-93
2021/07/12 16:07:55;;;;;;;4.55;3.58;;;;;;;27.05;56.12;100841.38;6068497;23;121237;-94
2021/07/12 16:10:48;;;;;;;4.10;3.63;;;;;;;26.98;56.37;100849.81;6090795;22;124252;-96
2021/07/12 16:13:15;;;;;;;6.53;4.50;;;;;;;26.72;56.47;100826.31;6091150;22;122117;-94
2021/07/12 16:15:52;;;;;;;6.00;3.80;;;;;;;26.65;56.64;100812.97;6065874;23;121345;-95
2021/07/12 16:18:18;;;;;;;4.22;3.83;;;;;;;26.80;56.33;100841.16;6065899;23;123254;-93
2021/07/12 16:20:44;;;;;;;4.38;3.70;;;;;;;26.77;55.96;100830.28;6070056;23;121989;-93
2021/07/12 16:23:12;;;;;;;6.30;3.33;;;;;;;26.79;54.93;100830.47;6041525;23;124519;-93
2021/07/12 16:26:19;;;;;;;5.65;3.58;;;;;;;26.97;54.87;100859.53;6040493;23;125245;-94
2021/07/12 16:28:56;;;;;;;5.47;2.97;;;;;;;26.86;53.92;100855.78;6041038;23;121266;-93
2021/07/12 16:31:32;;;;;;;4.22;3.30;;;;;;;26.56;53.98;100808.66;6067024;23;122033;-92
2021/07/12 16:33:58;;;;;;;4.45;3.35;;;;;;;26.56;54.74;100808.66;6040526;23;124622;-92
2021/07/12 16:36:49;;;;;;;10.50;3.53;;;;;;;26.51;54.02;100801.16;6065712;23;121234;-93
2021/07/12 16:43:33;;;;;;;5.97;3.13;;;;;;;26.49;53.00;100822.69;6058969;23;124451;-94
2021/07/12 16:51:13;;;;;;;4.25;2.88;;;;;;;26.24;54.26;100811.91;6083616;23;121894;-94
2021/07/12 16:53:40;;;;;;;4.85;3.20;;;;;;;26.24;54.10;100811.16;6059983;23;121157;-93
2021/07/12 16:56:10;;;;;;;3.75;3.17;;;;;;;26.38;54.46;100839.94;6085278;23;123517;-94
2021/07/12 16:58:43;;;;;;;4.10;3.00;;;;;;;26.29;54.37;100830.69;6062010;22;125004;-92
2021/07/12 17:05:06;;;;;;;5.05;3.28;;;;;;;26.05;53.63;100819.94;6090810;23;122087;-93
2021/07/12 17:07:33;;;;;;;5.07;3.60;;;;;;;26.06;54.64;100824.25;6037129;23;121852;-93
2021/07/12 17:09:59;;;;;;;3.58;3.15;;;;;;;26.28;54.97;100865.00;6086134;23;121138;-94
2021/07/12 17:12:25;;;;;;;3.85;3.00;;;;;;;26.06;54.54;100817.88;6065422;23;121695;-94
2021/07/12 17:14:51;;;;;;;3.97;3.00;;;;;;;26.04;54.64;100821.22;6038534;23;121144;-94
2021/07/12 17:36:48;;;;;;;8.60;3.90;;;;;;;26.40;56.36;100890.75;6026146;22;123315;-92
2021/07/12 17:45:25;;;;;;;6.30;3.35;;;;;;;26.16;55.94;100850.50;6026592;22;124715;-95
2021/07/12 17:52:28;;;;;;;6.45;3.35;;;;;;;25.83;55.91;100823.38;6027436;23;120979;-93
2021/07/12 18:24:08;;;;;;;4.95;3.20;;;;;;;25.61;55.03;100892.88;4978083;28;122013;-75
2021/07/12 18:26:34;;;;;;;3.72;2.88;;;;;;;25.52;55.44;100879.34;4978743;28;122165;-80
2021/07/12 18:29:01;;;;;;;4.82;2.90;;;;;;;25.56;55.08;100887.44;4970238;28;122036;-74
2021/07/12 18:31:27;;;;;;;4.55;3.00;;;;;;;25.52;55.22;100889.81;4949412;28;122568;-75
2021/07/12 18:33:53;;;;;;;4.85;2.95;;;;;;;25.51;55.00;100900.28;4960357;28;122107;-76
2021/07/12 18:36:19;;;;;;;4.50;3.05;;;;;;;25.47;55.88;100894.28;4961519;28;122405;-72
2021/07/12 18:38:46;;;;;;;4.68;3.35;;;;;;;25.41;55.89;100896.47;4958183;28;122905;-72
2021/07/12 18:41:14;;;;;;;5.30;3.30;;;;;;;25.43;56.31;100910.72;4959808;28;122737;-72
2021/07/12 18:43:42;;;;;;;5.32;3.28;;;;;;;25.39;56.11;100901.91;4944563;28;123648;-72
2021/07/12 18:46:09;;;;;;;5.80;3.13;;;;;;;25.36;56.26;100905.81;4933049;28;125305;-72
2021/07/12 18:48:41;;;;;;;4.13;3.30;;;;;;;25.27;56.42;100900.66;4923501;28;124273;-73
2021/07/12 18:51:08;;;;;;;5.43;3.80;;;;;;;25.31;56.62;100903.88;4924881;28;122281;-73
2021/07/12 18:53:34;;;;;;;7.05;3.67;;;;;;;25.28;56.34;100907.78;4949775;28;122683;-73
2021/07/12 18:55:59;;;;;;;5.80;3.95;;;;;;;25.27;57.00;100906.28;4994242;22;123759;-71
2021/07/12 18:58:28;;;;;;;4.30;3.58;;;;;;;25.26;56.47;100913.19;4905867;28;122898;-71
2021/07/12 19:00:54;;;;;;;6.90;3.60;;;;;;;25.23;56.95;100914.28;4916511;28;123971;-71
2021/07/12 19:03:19;;;;;;;4.13;3.20;;;;;;;25.20;57.30;100915.38;4928772;28;121959;-71
2021/07/12 19:05:47;;;;;;;6.93;3.97;;;;;;;25.19;57.02;100916.69;4896148;28;122337;-71
2021/07/12 19:08:13;;;;;;;5.68;3.65;;;;;;;25.16;57.08;100912.19;4916664;28;122445;-71
2021/07/12 19:10:39;;;;;;;5.53;3.55;;;;;;;25.14;57.06;100909.91;4917810;28;122396;-71
2021/07/12 19:13:04;;;;;;;6.95;4.30;;;;;;;25.09;57.39;100905.94;4917041;28;123375;-71
2021/07/12 19:15:30;;;;;;;6.95;4.00;;;;;;;25.06;57.90;100914.69;4916740;28;122443;-71
2021/07/12 19:17:59;;;;;;;7.18;3.60;;;;;;;25.04;57.84;100908.88;4912558;28;123595;-71
2021/07/12 19:20:28;;;;;;;6.55;4.13;;;;;;;25.03;57.73;100919.34;4914093;28;122069;-71
2021/07/12 19:22:54;;;;;;;8.57;4.53;;;;;;;24.99;57.92;100912.56;4917597;28;122129;-71
2021/07/12 19:25:24;;;;;;;8.15;4.43;;;;;;;24.96;58.41;100905.22;4896403;28;124694;-71
2021/07/12 19:27:52;;;;;;;8.32;3.85;;;;;;;24.96;57.85;100908.78;4920463;28;122141;-71
2021/07/12 19:30:22;;;;;;;8.35;4.53;;;;;;;24.93;58.74;100909.88;4916120;28;122564;-71
2021/07/12 19:32:50;;;;;;;4.85;4.15;;;;;;;24.89;58.78;100908.72;4899743;28;122276;-71